createdAt,value
2018-09-12T00:02:32.105Z,67.32
2018-09-12T00:05:04.536Z,68.18
2018-09-12T00:07:36.785Z,68.24
2018-09-12T00:10:09.145Z,68.44
2018-09-12T00:12:41.412Z,67.95
2018-09-12T00:15:13.920Z,67.95
2018-09-12T00:17:46.225Z,67.83
2018-09-12T00:20:18.594Z,68.28
2018-09-12T00:22:50.845Z,68.40
2018-09-12T00:25:23.172Z,67.81
2018-09-12T00:27:55.449Z,67.63
2018-09-12T00:30:27.777Z,67.62
2018-09-12T00:33:00.094Z,68.36
2018-09-12T00:35:32.396Z,68.73
2018-09-12T00:38:04.641Z,68.67
2018-09-12T00:40:36.929Z,68.49
2018-09-12T00:43:09.228Z,68.46
2018-09-12T00:45:41.517Z,69.18
2018-09-12T00:48:13.777Z,68.60
2018-09-12T00:50:46.113Z,68.85
2018-09-12T00:53:18.374Z,68.98
2018-09-12T00:55:50.717Z,69.36
2018-09-12T00:58:23.013Z,69.32
2018-09-12T01:00:55.296Z,69.09
2018-09-12T01:03:27.572Z,69.39
2018-09-12T01:05:59.936Z,69.10
2018-09-12T01:08:32.236Z,68.54
2018-09-12T01:11:04.595Z,69.33
2018-09-12T01:13:36.873Z,69.00
2018-09-12T01:16:09.140Z,69.12
2018-09-12T01:18:41.413Z,68.94
2018-09-12T01:21:13.680Z,69.39
2018-09-12T01:23:46.009Z,69.73
2018-09-12T01:26:18.328Z,69.35
2018-09-12T01:28:50.649Z,69.79
2018-09-12T01:31:22.942Z,69.96
2018-09-12T01:33:55.247Z,69.81
2018-09-12T01:36:27.550Z,69.97
2018-09-12T01:38:59.816Z,70.55
2018-09-12T01:41:32.092Z,70.73
2018-09-12T01:44:04.433Z,70.85
2018-09-12T01:46:36.745Z,70.20
2018-09-12T01:49:12.909Z,70.13
2018-09-12T01:51:46.065Z,70.67
2018-09-12T01:54:18.827Z,70.34
2018-09-12T01:56:51.101Z,70.53
2018-09-12T01:59:23.458Z,70.12
2018-09-12T02:01:55.789Z,71.02
2018-09-12T02:04:28.173Z,70.52
2018-09-12T02:07:00.470Z,70.83
2018-09-12T02:09:32.716Z,71.08
2018-09-12T02:12:05.017Z,70.88
2018-09-12T02:14:37.298Z,71.35
2018-09-12T02:17:09.612Z,70.86
2018-09-12T02:19:42.032Z,71.25
2018-09-12T02:22:14.326Z,71.78
2018-09-12T02:24:46.580Z,71.63
2018-09-12T02:27:18.853Z,71.58
2018-09-12T02:29:51.145Z,71.83
2018-09-12T02:32:23.509Z,71.60
2018-09-12T02:34:55.825Z,71.90
2018-09-12T02:37:28.117Z,71.90
2018-09-12T02:40:00.471Z,71.68
2018-09-12T02:42:32.768Z,71.44
2018-09-12T02:45:05.445Z,71.42
2018-09-12T02:47:38.745Z,71.15
2018-09-12T02:50:12.026Z,71.56
2018-09-12T02:52:44.297Z,71.25
2018-09-12T02:55:16.586Z,71.34
2018-09-12T02:57:48.854Z,71.57
2018-09-12T03:00:21.146Z,71.69
2018-09-12T03:02:53.440Z,71.32
2018-09-12T03:05:25.750Z,71.00
2018-09-12T03:07:58.169Z,72.04
2018-09-12T03:10:30.404Z,72.28
2018-09-12T03:13:02.770Z,72.42
2018-09-12T03:15:35.042Z,72.90
2018-09-12T03:18:07.366Z,72.38
2018-09-12T03:20:39.688Z,72.14
2018-09-12T03:23:11.908Z,72.99
2018-09-12T03:25:44.145Z,72.86
2018-09-12T03:28:16.454Z,72.48
2018-09-12T03:30:48.712Z,72.77
2018-09-12T03:33:21.262Z,72.60
2018-09-12T03:35:53.576Z,72.23
2018-09-12T03:38:25.852Z,72.28
2018-09-12T03:40:58.176Z,72.42
2018-09-12T03:43:30.442Z,72.85
2018-09-12T03:46:02.796Z,72.70
2018-09-12T03:48:35.034Z,72.99
2018-09-12T03:51:07.358Z,72.85
2018-09-12T03:53:39.621Z,72.91
2018-09-12T03:56:11.883Z,72.62
2018-09-12T03:58:44.175Z,73.18
2018-09-12T04:01:16.512Z,72.71
2018-09-12T04:03:48.817Z,72.11
2018-09-12T04:06:21.496Z,72.53
2018-09-12T04:08:53.793Z,72.18
2018-09-12T04:11:26.125Z,72.68
2018-09-12T04:13:58.529Z,73.11
2018-09-12T04:16:30.867Z,73.31
2018-09-12T04:19:03.167Z,73.75
2018-09-12T04:21:35.488Z,73.78
2018-09-12T04:24:07.880Z,73.95
2018-09-12T04:26:40.168Z,74.09
2018-09-12T04:29:12.439Z,73.59
2018-09-12T04:31:44.774Z,74.11
2018-09-12T04:34:17.076Z,74.12
2018-09-12T04:36:49.357Z,74.41
2018-09-12T04:39:21.663Z,74.26
2018-09-12T04:41:54.016Z,74.22
2018-09-12T04:44:26.384Z,74.08
2018-09-12T04:46:58.732Z,74.30
2018-09-12T04:49:31.089Z,74.02
2018-09-12T04:52:03.436Z,73.93
2018-09-12T04:54:35.840Z,74.56
2018-09-12T04:57:08.136Z,74.26
2018-09-12T04:59:40.546Z,73.78
2018-09-12T05:02:12.787Z,73.98
2018-09-12T05:04:45.126Z,74.29
2018-09-12T05:07:17.394Z,73.84
2018-09-12T05:09:49.694Z,74.10
2018-09-12T05:12:22.051Z,73.64
2018-09-12T05:14:54.357Z,73.20
2018-09-12T05:17:26.687Z,73.07
2018-09-12T05:19:59.025Z,73.21
2018-09-12T05:22:31.316Z,73.24
2018-09-12T05:25:03.773Z,72.88
2018-09-12T05:27:43.025Z,72.58
2018-09-12T05:30:15.352Z,73.53
2018-09-12T05:32:47.661Z,73.65
2018-09-12T05:35:19.950Z,73.46
2018-09-12T05:37:52.260Z,73.60
2018-09-12T05:40:24.573Z,74.15
2018-09-12T05:42:56.868Z,73.90
2018-09-12T05:45:29.149Z,74.05
2018-09-12T05:48:01.469Z,73.55
2018-09-12T05:50:33.762Z,71.75
2018-09-12T05:53:06.101Z,70.09
2018-09-12T05:55:38.365Z,68.02
2018-09-12T05:58:10.676Z,66.85
2018-09-12T06:00:43.035Z,64.73
2018-09-12T06:03:15.389Z,63.71
2018-09-12T06:05:47.805Z,64.00
2018-09-12T06:08:20.167Z,64.58
2018-09-12T06:10:52.440Z,64.93
2018-09-12T06:13:24.736Z,64.94
2018-09-12T06:15:57.020Z,64.96
2018-09-12T06:18:29.417Z,62.65
2018-09-12T06:21:01.820Z,61.44
2018-09-12T06:23:34.101Z,59.88
2018-09-12T06:26:06.396Z,59.04
2018-09-12T06:28:38.733Z,57.64
2018-09-12T06:31:10.973Z,56.03
2018-09-12T06:33:43.318Z,55.25
2018-09-12T06:36:15.613Z,54.22
2018-09-12T06:38:47.943Z,53.45
2018-09-12T06:41:20.284Z,52.45
2018-09-12T06:43:52.540Z,50.95
2018-09-12T06:46:24.824Z,50.65
2018-09-12T06:48:57.089Z,50.05
2018-09-12T06:51:29.392Z,49.25
2018-09-12T06:54:01.740Z,47.21
2018-09-12T06:56:34.098Z,47.24
2018-09-12T06:59:06.410Z,46.41
2018-09-12T07:01:38.729Z,45.53
2018-09-12T07:04:11.020Z,45.29
2018-09-12T07:06:43.269Z,44.44
2018-09-12T07:09:15.581Z,45.36
2018-09-12T07:11:48.007Z,44.25
2018-09-12T07:14:29.929Z,44.56
2018-09-12T07:17:02.330Z,45.76
2018-09-12T07:19:34.701Z,45.39
2018-09-12T07:22:06.966Z,45.49
2018-09-12T07:24:39.251Z,46.08
2018-09-12T07:27:11.501Z,45.61
2018-09-12T07:29:43.757Z,46.02
2018-09-12T07:32:16.010Z,45.62
2018-09-12T07:34:48.229Z,46.43
2018-09-12T07:37:20.520Z,46.52
2018-09-12T07:39:52.752Z,45.46
2018-09-12T07:42:25.012Z,46.09
2018-09-12T07:44:57.229Z,46.11
2018-09-12T07:47:29.492Z,45.64
2018-09-12T07:50:01.722Z,45.15
2018-09-12T07:52:34.011Z,44.33
2018-09-12T07:55:06.532Z,44.16
2018-09-12T07:57:38.762Z,43.72
2018-09-12T08:00:11.101Z,43.45
2018-09-12T08:02:43.303Z,42.84
2018-09-12T08:05:15.645Z,43.30
2018-09-12T08:07:47.864Z,42.57
2018-09-12T08:10:20.101Z,41.49
2018-09-12T08:12:52.428Z,42.44
2018-09-12T08:15:24.724Z,41.77
2018-09-12T08:17:57.005Z,41.90
2018-09-12T08:20:29.277Z,41.73
2018-09-12T08:23:01.560Z,40.59
2018-09-12T08:25:33.848Z,40.53
2018-09-12T08:28:06.110Z,41.07
2018-09-12T08:30:38.377Z,40.88
2018-09-12T08:33:10.781Z,39.94
2018-09-12T08:35:42.970Z,39.35
2018-09-12T08:38:15.300Z,39.38
2018-09-12T08:40:47.510Z,38.31
2018-09-12T08:43:19.793Z,38.14
2018-09-12T08:45:52.020Z,39.57
2018-09-12T08:48:24.370Z,38.66
2018-09-12T08:50:56.635Z,36.53
2018-09-12T08:53:28.871Z,37.32
2018-09-12T08:56:01.152Z,37.62
2018-09-12T08:58:33.438Z,37.68
2018-09-12T09:01:05.747Z,37.64
2018-09-12T09:03:37.996Z,37.73
2018-09-12T09:06:10.345Z,37.67
2018-09-12T09:08:42.661Z,37.18
2018-09-12T09:11:14.973Z,36.47
2018-09-12T09:13:47.287Z,35.62
2018-09-12T09:16:19.552Z,35.95
2018-09-12T09:18:51.809Z,34.13
2018-09-12T09:21:24.113Z,35.39
2018-09-12T09:23:56.398Z,34.79
2018-09-12T09:26:28.735Z,33.51
2018-09-12T09:29:00.989Z,32.42
2018-09-12T09:31:33.333Z,33.23
2018-09-12T09:34:05.677Z,33.47
2018-09-12T09:36:37.977Z,33.00
2018-09-12T09:39:11.328Z,33.18
2018-09-12T09:41:43.601Z,32.17
2018-09-12T09:44:15.886Z,32.17
2018-09-12T09:46:48.206Z,31.92
2018-09-12T09:49:20.566Z,31.71
2018-09-12T09:51:52.876Z,31.87
2018-09-12T09:54:25.128Z,31.40
2018-09-12T09:56:57.434Z,31.39
2018-09-12T09:59:29.818Z,31.33
2018-09-12T10:02:07.713Z,31.23
2018-09-12T10:04:45.820Z,30.89
2018-09-12T10:07:23.738Z,30.51
2018-09-12T10:10:03.539Z,30.55
2018-09-12T10:12:36.247Z,31.38
2018-09-12T10:15:08.643Z,30.72
2018-09-12T10:17:41.002Z,30.89
2018-09-12T10:20:13.259Z,30.77
2018-09-12T10:22:45.572Z,30.32
2018-09-12T10:25:17.881Z,30.39
2018-09-12T10:27:50.148Z,30.26
2018-09-12T10:30:22.441Z,30.08
2018-09-12T10:32:54.741Z,30.14
2018-09-12T10:35:27.003Z,29.90
2018-09-12T10:37:59.274Z,29.68
2018-09-12T10:40:31.558Z,30.47
2018-09-12T10:43:03.818Z,30.12
2018-09-12T10:45:36.114Z,29.51
2018-09-12T10:48:08.435Z,30.16
2018-09-12T10:50:40.726Z,29.79
2018-09-12T10:53:12.981Z,30.14
2018-09-12T10:55:45.268Z,30.21
2018-09-12T10:58:17.573Z,30.74
2018-09-12T11:00:49.828Z,29.58
2018-09-12T11:03:22.168Z,29.24
2018-09-12T11:05:54.481Z,29.75
2018-09-12T11:08:26.781Z,29.72
2018-09-12T11:10:59.080Z,29.70
2018-09-12T11:13:31.418Z,30.12
2018-09-12T11:16:03.712Z,30.67
2018-09-12T11:18:36.058Z,30.29
2018-09-12T11:21:08.375Z,30.49
2018-09-12T11:23:40.681Z,30.45
2018-09-12T11:26:13.067Z,29.88
2018-09-12T11:28:45.423Z,30.19
2018-09-12T11:31:17.736Z,29.87
2018-09-12T11:33:50.080Z,29.40
2018-09-12T11:36:22.451Z,29.45
2018-09-12T11:38:54.785Z,29.50
2018-09-12T11:41:27.099Z,29.69
2018-09-12T11:43:59.474Z,28.83
2018-09-12T11:46:31.796Z,29.66
2018-09-12T11:49:05.091Z,29.75
2018-09-12T11:51:37.361Z,28.51
2018-09-12T11:54:09.674Z,29.15
2018-09-12T11:56:41.969Z,29.21
2018-09-12T11:59:14.329Z,29.56
2018-09-12T12:01:46.904Z,29.17
2018-09-12T12:04:19.233Z,29.49
2018-09-12T12:06:51.587Z,29.52
2018-09-12T12:09:23.869Z,29.44
2018-09-12T12:11:56.197Z,29.50
2018-09-12T12:14:28.634Z,29.27
2018-09-12T12:17:01.102Z,29.02
2018-09-12T12:19:33.410Z,29.03
2018-09-12T12:22:05.723Z,29.37
2018-09-12T12:24:37.993Z,29.34
2018-09-12T12:27:10.346Z,29.74
2018-09-12T12:29:42.636Z,28.99
2018-09-12T12:32:15.152Z,28.93
2018-09-12T12:34:47.466Z,28.58
2018-09-12T12:37:20.002Z,28.75
2018-09-12T12:39:52.265Z,28.82
2018-09-12T12:42:24.582Z,29.29
2018-09-12T12:44:56.905Z,29.06
2018-09-12T12:47:29.195Z,29.64
2018-09-12T12:50:01.516Z,29.44
2018-09-12T12:52:33.871Z,29.40
2018-09-12T12:55:06.244Z,29.29
2018-09-12T12:57:38.602Z,29.34
2018-09-12T13:00:10.916Z,29.56
2018-09-12T13:02:43.309Z,29.48
2018-09-12T13:05:15.663Z,29.45
2018-09-12T13:07:48.001Z,29.70
2018-09-12T13:10:20.264Z,29.50
2018-09-12T13:12:52.579Z,29.35
2018-09-12T13:15:24.905Z,28.50
2018-09-12T13:17:57.232Z,28.67
2018-09-12T13:20:29.629Z,29.07
2018-09-12T13:23:02.025Z,29.12
2018-09-12T13:25:34.307Z,29.28
2018-09-12T13:28:06.647Z,29.85
2018-09-12T13:30:38.998Z,28.73
2018-09-12T13:33:11.293Z,29.61
2018-09-12T13:35:43.636Z,29.60
2018-09-12T13:38:15.931Z,29.97
2018-09-12T13:40:48.248Z,29.65
2018-09-12T13:43:20.556Z,29.90
2018-09-12T13:45:52.859Z,29.57
2018-09-12T13:48:25.194Z,30.16
2018-09-12T13:50:57.537Z,29.06
2018-09-12T13:53:29.828Z,30.96
2018-09-12T13:56:02.163Z,30.06
2018-09-12T13:58:34.517Z,30.36
2018-09-12T14:01:06.932Z,30.23
2018-09-12T14:03:39.214Z,29.82
2018-09-12T14:06:11.571Z,30.08
2018-09-12T14:08:43.943Z,29.87
2018-09-12T14:11:16.269Z,29.74
2018-09-12T14:13:48.623Z,29.64
2018-09-12T14:16:20.960Z,30.03
2018-09-12T14:18:53.301Z,29.95
2018-09-12T14:21:25.762Z,29.91
2018-09-12T14:23:58.121Z,30.19
2018-09-12T14:26:30.447Z,30.25
2018-09-12T14:29:02.747Z,30.25
2018-09-12T14:31:35.138Z,30.20
2018-09-12T14:34:07.542Z,30.48
2018-09-12T14:36:39.910Z,30.31
2018-09-12T14:39:12.399Z,30.10
2018-09-12T14:41:44.698Z,30.60
2018-09-12T14:44:16.997Z,30.88
2018-09-12T14:46:49.388Z,30.87
2018-09-12T14:49:21.724Z,29.89
2018-09-12T14:51:54.083Z,30.24
2018-09-12T14:54:26.377Z,30.74
2018-09-12T14:56:58.733Z,30.71
2018-09-12T14:59:31.077Z,30.95
2018-09-12T15:02:03.442Z,31.20
2018-09-12T15:04:35.825Z,30.69
2018-09-12T15:07:08.158Z,30.43
2018-09-12T15:09:40.548Z,30.65
2018-09-12T15:12:13.004Z,31.23
2018-09-12T15:14:45.309Z,31.38
2018-09-12T15:17:17.659Z,31.47
2018-09-12T15:19:49.987Z,31.25
2018-09-12T15:22:22.377Z,31.44
2018-09-12T15:24:54.702Z,31.31
2018-09-12T15:27:27.061Z,31.25
2018-09-12T15:29:59.390Z,30.86
2018-09-12T15:32:31.849Z,30.30
2018-09-12T15:35:04.175Z,29.55
2018-09-12T15:37:36.530Z,29.85
2018-09-12T15:40:08.830Z,29.43
2018-09-12T15:42:41.194Z,29.61
2018-09-12T15:45:13.521Z,29.77
2018-09-12T15:47:45.878Z,29.94
2018-09-12T15:50:18.258Z,29.87
2018-09-12T15:52:50.738Z,30.33
2018-09-12T15:55:23.137Z,30.74
2018-09-12T15:57:55.577Z,31.05
2018-09-12T16:00:28.553Z,30.84
2018-09-12T16:03:00.905Z,30.40
2018-09-12T16:05:33.284Z,30.69
2018-09-12T16:08:05.602Z,30.49
2018-09-12T16:10:37.917Z,30.62
2018-09-12T16:13:10.225Z,31.26
2018-09-12T16:15:42.562Z,31.68
2018-09-12T16:18:14.874Z,32.32
2018-09-12T16:20:47.246Z,32.96
2018-09-12T16:23:19.551Z,33.07
2018-09-12T16:25:51.865Z,33.53
2018-09-12T16:28:24.179Z,33.98
2018-09-12T16:30:56.564Z,34.17
2018-09-12T16:33:28.870Z,34.69
2018-09-12T16:36:01.249Z,35.05
2018-09-12T16:38:33.565Z,36.01
2018-09-12T16:41:06.029Z,37.00
2018-09-12T16:43:38.403Z,37.35
2018-09-12T16:46:10.748Z,37.74
2018-09-12T16:48:43.092Z,38.09
2018-09-12T16:51:15.660Z,39.27
2018-09-12T16:53:48.045Z,39.47
2018-09-12T16:56:20.439Z,40.29
2018-09-12T16:58:52.817Z,40.79
2018-09-12T17:01:25.183Z,40.36
2018-09-12T17:03:57.512Z,40.79
2018-09-12T17:06:29.874Z,40.53
2018-09-12T17:09:02.247Z,40.62
2018-09-12T17:11:34.565Z,41.63
2018-09-12T17:14:07.024Z,42.50
2018-09-12T17:16:39.360Z,42.10
2018-09-12T17:19:11.716Z,42.46
2018-09-12T17:21:44.025Z,43.35
2018-09-12T17:24:16.354Z,43.27
2018-09-12T17:26:48.675Z,44.21
2018-09-12T17:29:21.015Z,43.71
2018-09-12T17:31:53.361Z,44.13
2018-09-12T17:34:25.728Z,44.92
2018-09-12T17:36:58.038Z,45.80
2018-09-12T17:39:30.433Z,46.51
2018-09-12T17:42:02.773Z,47.30
2018-09-12T17:44:35.066Z,47.41
2018-09-12T17:47:07.458Z,47.56
2018-09-12T17:49:39.824Z,47.96
2018-09-12T17:52:12.203Z,48.13
2018-09-12T17:54:44.621Z,47.92
2018-09-12T17:57:16.985Z,48.15
2018-09-12T17:59:49.390Z,48.12
2018-09-12T18:02:21.724Z,47.99
2018-09-12T18:04:54.102Z,47.75
2018-09-12T18:07:26.485Z,47.40
2018-09-12T18:09:58.864Z,48.70
2018-09-12T18:12:31.190Z,48.77
2018-09-12T18:15:03.943Z,49.06
2018-09-12T18:17:36.335Z,48.93
2018-09-12T18:20:08.731Z,49.28
2018-09-12T18:22:41.058Z,50.21
2018-09-12T18:25:13.428Z,49.49
2018-09-12T18:27:45.855Z,50.85
2018-09-12T18:30:18.375Z,50.07
2018-09-12T18:32:50.755Z,50.65
2018-09-12T18:35:23.182Z,51.56
2018-09-12T18:37:55.562Z,51.76
2018-09-12T18:40:27.937Z,52.42
2018-09-12T18:43:00.369Z,52.07
2018-09-12T18:45:32.673Z,52.88
2018-09-12T18:48:05.294Z,53.92
2018-09-12T18:50:37.654Z,54.33
2018-09-12T18:53:10.051Z,53.90
2018-09-12T18:55:42.415Z,53.85
2018-09-12T18:58:14.787Z,54.11
2018-09-12T19:00:47.119Z,53.94
2018-09-12T19:03:19.529Z,54.57
2018-09-12T19:05:51.931Z,54.17
2018-09-12T19:08:24.306Z,53.98
2018-09-12T19:10:57.576Z,54.37
2018-09-12T19:13:29.918Z,54.42
2018-09-12T19:16:02.321Z,55.11
2018-09-12T19:18:34.718Z,55.71
2018-09-12T19:21:07.163Z,55.65
2018-09-12T19:23:39.557Z,56.14
2018-09-12T19:26:11.924Z,56.06
2018-09-12T19:28:44.309Z,56.24
2018-09-12T19:31:16.677Z,56.33
2018-09-12T19:33:56.041Z,56.42
2018-09-12T19:36:28.476Z,56.40
2018-09-12T19:39:00.846Z,56.42
2018-09-12T19:41:33.190Z,56.77
2018-09-12T19:44:05.816Z,56.83
2018-09-12T19:46:38.166Z,57.25
2018-09-12T19:49:10.485Z,57.17
2018-09-12T19:51:42.889Z,57.81
2018-09-12T19:54:15.281Z,57.54
2018-09-12T19:56:48.105Z,57.66
2018-09-12T19:59:20.440Z,57.81
2018-09-12T20:01:52.812Z,57.66
2018-09-12T20:04:25.191Z,58.28
2018-09-12T20:06:57.574Z,58.53
2018-09-12T20:09:29.941Z,59.24
2018-09-12T20:12:02.315Z,59.48
2018-09-12T20:14:34.699Z,59.21
2018-09-12T20:17:07.104Z,59.26
2018-09-12T20:19:39.525Z,58.88
2018-09-12T20:22:11.877Z,60.55
2018-09-12T20:24:44.332Z,60.65
2018-09-12T20:27:16.662Z,60.74
2018-09-12T20:29:49.019Z,61.07
2018-09-12T20:32:21.336Z,60.64
2018-09-12T20:34:53.652Z,61.04
2018-09-12T20:37:25.989Z,60.96
2018-09-12T20:39:58.291Z,60.71
2018-09-12T20:42:30.680Z,61.34
2018-09-12T20:45:03.058Z,60.80
2018-09-12T20:47:35.417Z,61.29
2018-09-12T20:50:07.762Z,61.61
2018-09-12T20:52:40.057Z,61.58
2018-09-12T20:55:12.407Z,60.97
2018-09-12T20:57:44.719Z,60.81
2018-09-12T21:00:17.032Z,60.81
2018-09-12T21:02:49.394Z,60.74
2018-09-12T21:05:21.761Z,60.47
2018-09-12T21:07:54.125Z,60.85
2018-09-12T21:10:26.507Z,61.00
2018-09-12T21:12:58.872Z,60.74
2018-09-12T21:15:31.252Z,61.58
2018-09-12T21:18:03.707Z,61.88
2018-09-12T21:20:36.040Z,61.19
2018-09-12T21:23:08.392Z,61.43
2018-09-12T21:25:40.650Z,61.64
2018-09-12T21:28:13.005Z,62.57
2018-09-12T21:30:45.259Z,63.38
2018-09-12T21:33:17.669Z,63.42
2018-09-12T21:35:49.940Z,63.72
2018-09-12T21:38:22.300Z,65.13
2018-09-12T21:40:54.668Z,67.07
2018-09-12T21:43:26.992Z,68.97
2018-09-12T21:45:59.353Z,68.33
2018-09-12T21:48:31.614Z,70.74
2018-09-12T21:51:04.371Z,71.07
2018-09-12T21:53:36.864Z,73.35
2018-09-12T21:56:09.200Z,71.91
2018-09-12T21:58:41.553Z,73.17
2018-09-12T22:01:13.964Z,69.76
2018-09-12T22:03:46.350Z,69.76
2018-09-12T22:06:18.897Z,71.35
2018-09-12T22:08:51.213Z,72.76
2018-09-12T22:11:23.517Z,75.03
2018-09-12T22:13:55.808Z,76.44
2018-09-12T22:16:28.089Z,77.05
2018-09-12T22:19:00.531Z,77.26
2018-09-12T22:21:32.877Z,77.93
2018-09-12T22:24:05.114Z,78.35
2018-09-12T22:26:37.433Z,79.48
2018-09-12T22:29:09.753Z,79.81
2018-09-12T22:31:42.032Z,79.79
2018-09-12T22:34:14.301Z,79.92
2018-09-12T22:36:46.585Z,78.97
2018-09-12T22:39:18.855Z,78.70
2018-09-12T22:41:51.195Z,80.16
2018-09-12T22:44:23.420Z,82.25
2018-09-12T22:46:55.688Z,81.18
2018-09-12T22:49:27.983Z,80.26
2018-09-12T22:52:00.268Z,77.95
2018-09-12T22:54:32.624Z,77.57
2018-09-12T22:57:04.956Z,77.34
2018-09-12T22:59:37.221Z,77.39
2018-09-12T23:02:09.544Z,78.30
2018-09-12T23:04:41.897Z,79.12
2018-09-12T23:07:14.197Z,80.54
2018-09-12T23:09:46.484Z,80.03
2018-09-12T23:12:18.753Z,80.81
2018-09-12T23:14:51.089Z,81.34
2018-09-12T23:17:23.351Z,80.89
2018-09-12T23:19:55.660Z,80.42
2018-09-12T23:22:27.924Z,80.94
2018-09-12T23:25:00.325Z,81.54
2018-09-12T23:27:32.585Z,81.03
2018-09-12T23:30:05.060Z,80.92
2018-09-12T23:32:37.393Z,81.22
2018-09-12T23:35:09.678Z,80.90
2018-09-12T23:37:42.018Z,81.62
2018-09-12T23:40:14.320Z,81.57
2018-09-12T23:42:46.617Z,81.30
2018-09-12T23:45:18.911Z,81.30
2018-09-12T23:47:51.169Z,81.50
2018-09-12T23:50:23.441Z,81.73
2018-09-12T23:52:55.716Z,82.14
2018-09-12T23:55:28.108Z,82.10
2018-09-12T23:58:00.372Z,82.21
